Smyre, North Carolina
Current Conditions -  °F | °C
As of 12:54 PM on Sunday 25 Jan 2015 (Local Time) from KAKH Reporting Station
Clear Clear  
Wind Chill: 54°   Ceiling: Unl
Heat Index: 54°   Visibility: 10mi
Dew Point: 29°   Wind: 7mph
Humidity: 38%   Direction: NA
Pressure: 29.86"   Gusts: NA
Location:  35.2205°N, 81.2501°W
Report Text: KAKH 251754Z AUTO VRB06KT 10SM CLR 12/M02 A2986 RMK AO2 SLP114 T01221017 10122 21028 58020
Loading
Personal Weather Stations






























Interactive Weather Map New forecast layout! Learn more

10-Day Weather Forecast

Advertisements
Track Severe Weather on mobile